Home > Products > Valid Products > TAF

000
FTUS41 KBGM 052320
TAFSYR
TAF
KSYR 052320Z 0600/0624 VRB03KT P6SM SCT250
     FM061300 12005KT P6SM SCT100 BKN250
     FM061800 16007KT P6SM SCT040 BKN100=



000
FTUS41 KBGM 052320
TAFELM
TAF
KELM 052320Z 0600/0624 VRB02KT P6SM BKN250
      TEMPO 0607/0611 2SM BR SCT002 BKN250
     FM061400 18005KT P6SM SCT045 BKN120
     FM061800 18008KT P6SM -SHRA BKN045 OVC100=



000
FTUS41 KBGM 052320
TAFITH
TAF
KITH 052320Z 0600/0624 VRB03KT P6SM BKN250
     FM061400 16005KT P6SM SCT040 BKN120
     FM061800 18007KT P6SM BKN040 BKN080=



000
FTUS41 KBGM 052320
TAFAVP
TAF
KAVP 052320Z 0600/0624 VRB02KT P6SM BKN250
     FM060900 VRB03KT P6SM BKN120
     FM061500 21004KT P6SM BKN040 OVC100
     FM061800 22007KT P6SM -SHRA OVC040=



000
FTUS41 KBGM 052320
TAFBGM
TAF
KBGM 052320Z 0600/0624 VRB03KT P6SM BKN250
     FM061400 18007KT P6SM SCT040 BKN120
     FM061800 18008KT P6SM BKN040 BKN080=



000
FTUS41 KBGM 051731
TAFSYR
TAF
KSYR 051731Z 0518/0618 29010KT P6SM SCT040
     FM060000 VRB03KT P6SM SCT250
     FM061300 10005KT P6SM SCT100 BKN250=



000
FTUS41 KBGM 051731
TAFITH
TAF
KITH 051731Z 0518/0618 30008KT P6SM BKN040
     FM060000 VRB03KT P6SM BKN250
     FM061400 16005KT P6SM SCT040 BKN120=



000
FTUS41 KBGM 051731
TAFAVP
TAF
KAVP 051731Z 0518/0618 29005KT P6SM SCT045
     FM060000 VRB02KT P6SM BKN250
     FM060900 VRB02KT P6SM BKN150
     FM061400 21005KT P6SM SCT040 OVC080=



000
FTUS41 KBGM 051731
TAFELM
TAF
KELM 051731Z 0518/0618 VRB04KT P6SM BKN050
     FM060000 VRB02KT P6SM BKN250
      TEMPO 0608/0612 2SM BR SCT002 BKN250
     FM061400 18005KT P6SM SCT045 BKN120=



000
FTUS41 KBGM 051731
TAFBGM
TAF
KBGM 051731Z 0518/0618 30010KT P6SM BKN040
     FM060000 VRB03KT P6SM BKN250
     FM061400 18007KT P6SM SCT040 BKN120=



000
FTUS41 KBGM 051122
TAFAVP
TAF
KAVP 051122Z 0512/0612 VRB03KT P6SM SCT005 BKN015
      TEMPO 0512/0513 4SM BR OVC005
     FM051400 32008KT P6SM SCT045 BKN250
     FM060000 VRB03KT P6SM OVC150=



000
FTUS41 KBGM 051122
TAFBGM
TAF
KBGM 051122Z 0512/0612 27005KT 3SM BR SCT003 BKN012
      TEMPO 0512/0514 1/4SM FG OVC002
     FM051500 30010KT P6SM FEW035 BKN250
     FM060000 15005KT P6SM SCT100 BKN250=



000
FTUS41 KBGM 051122
TAFITH
TAF
KITH 051122Z 0512/0612 VRB03KT 3SM BR SKC
      TEMPO 0512/0513 1/2SM FG BKN001
     FM051400 30008KT P6SM FEW035 BKN250
     FM060000 16005KT P6SM BKN250=



000
FTUS41 KBGM 051122
TAFELM
TAF
KELM 051122Z 0512/0612 VRB03KT 5SM BR OVC008
      TEMPO 0512/0514 P6SM NSW SCT008 BKN015
     FM051400 31005KT P6SM FEW050 BKN250
     FM060000 VRB03KT P6SM SCT100 BKN250
      TEMPO 0607/0611 2SM BR SCT002 BKN250=



000
FTUS41 KBGM 051122
TAFSYR
TAF
KSYR 051122Z 0512/0612 VRB03KT P6SM SKC
      TEMPO 0512/0513 5SM BR
     FM051400 28010KT P6SM FEW050
     FM060000 15005KT P6SM SCT100 BKN250=



000
FTUS41 KBGM 050816 AAA
TAFELM
TAF AMD
KELM 050816Z 0508/0606 VRB03KT 1/2SM FG OVC002
      TEMPO 0508/0512 4SM BR BKN008
     FM051200 VRB03KT P6SM SKC
      TEMPO 0512/0513 5SM BR SCT005
     FM051500 31005KT P6SM FEW050 BKN250
     FM060000 VRB03KT P6SM BKN250=



000
FTUS41 KBGM 050816 AAA
TAFSYR
TAF AMD
KSYR 050816Z 0508/0606 VRB03KT P6SM SKC
      TEMPO 0508/0512 3SM BR
     FM051400 28010KT P6SM FEW050
     FM060000 VRB03KT P6SM BKN250=



000
FTUS41 KBGM 050816 AAA
TAFAVP
TAF AMD
KAVP 050816Z 0508/0606 VRB03KT 1/2SM FG VV002
      TEMPO 0508/0512 2SM BR BKN008
     FM051200 VRB03KT 4SM BR BKN025
      TEMPO 0512/0514 P6SM NSW SCT025
     FM051400 32008KT P6SM SCT045 BKN250
     FM060000 VRB03KT P6SM BKN250=



000
FTUS41 KBGM 050816 AAA
TAFITH
TAF AMD
KITH 050816Z 0508/0606 VRB03KT 3SM BR SKC
      TEMPO 0508/0512 1 1/2SM BR BKN005
     FM051200 VRB03KT P6SM SKC
     FM051400 30008KT P6SM FEW035 BKN250
     FM060000 VRB03KT P6SM BKN250=



000
FTUS41 KBGM 050816 AAA
TAFBGM
TAF AMD
KBGM 050816Z 0508/0606 VRB03KT 1/2SM FG VV002
      TEMPO 0508/0512 2SM BR BKN005
     FM051200 27005KT P6SM SKC
      TEMPO 0512/0514 3SM BR SCT008
     FM051400 30010KT P6SM FEW035 BKN250
     FM060000 VRB03KT P6SM BKN250=



000
FTUS41 KBGM 050546
TAFSYR
TAF
KSYR 050546Z 0506/0606 VRB03KT P6SM SCT025
      TEMPO 0506/0508 BKN025
     FM050800 VRB03KT P6SM SKC
      TEMPO 0508/0512 5SM BR
     FM051400 28010KT P6SM FEW050
     FM060000 VRB03KT P6SM BKN250=



000
FTUS41 KBGM 050546
TAFBGM
TAF
KBGM 050546Z 0506/0606 VRB03KT 3SM BR BKN012
      TEMPO 0508/0512 1SM BR OVC005
     FM051300 30010KT P6SM FEW035 BKN250
     FM060000 VRB03KT P6SM BKN250=



000
FTUS41 KBGM 050546
TAFITH
TAF
KITH 050546Z 0506/0606 VRB03KT 3SM BR SKC
      TEMPO 0508/0512 3/4SM BR BKN005
     FM051400 30008KT P6SM FEW035 BKN250
     FM060000 VRB03KT P6SM BKN250=



000
FTUS41 KBGM 050546
TAFELM
TAF
KELM 050546Z 0506/0606 VRB03KT 1/2SM FG VV002
      TEMPO 0511/0513 2SM BR SCT002
     FM051300 VRB03KT P6SM SKC
      TEMPO 0513/0514 4SM BR SCT005
     FM051500 31005KT P6SM FEW050 BKN250
     FM060000 VRB03KT P6SM BKN250=



000
FTUS41 KBGM 050546
TAFAVP
TAF
KAVP 050546Z 0506/0606 VRB03KT 3SM BR OVC006
      TEMPO 0506/0510 1 1/2SM BR SCT006 BKN015
     FM051200 VRB03KT P6SM BKN025
     FM051400 32008KT P6SM SCT045 BKN250
     FM060000 VRB03KT P6SM BKN250=



000
FTUS41 KBGM 050238 AAB
TAFELM
TAF AMD
KELM 050238Z 0503/0524 00000KT 1/2SM FG VV002
      TEMPO 0503/0505 2SM BR SCT002
     FM051300 VRB03KT P6SM FEW050=



000
FTUS41 KBGM 050041 AAA
TAFAVP
TAF AMD
KAVP 050041Z 0501/0524 VRB03KT P6SM BKN035
     FM050400 VRB03KT 3SM BR FEW007 SCT025
      TEMPO 0505/0508 2SM BR OVC009
     FM050800 VRB02KT 1 1/2SM BR OVC007
     FM051230 28005KT P6SM FEW050=



000
FTUS41 KBGM 050040 AAB
TAFBGM
TAF AMD
KBGM 050040Z 0501/0524 15005KT P6SM BKN025
     FM050200 22004KT P6SM FEW025
      TEMPO 0506/0508 2SM BR
     FM050800 27003KT 2SM BR SCT003
     FM051230 30007KT P6SM FEW040=



000
FTUS41 KBGM 042356 AAA
TAFELM
TAF AMD
KELM 042356Z 0500/0524 14005KT P6SM SCT025 BKN060
      TEMPO 0500/0501 3SM SHRA BR OVC025
     FM050200 VRB03KT P6SM FEW045
      TEMPO 0503/0506 1 1/2SM BR FEW002
     FM050600 00000KT 1/2SM FG OVC002
     FM051300 VRB03KT P6SM FEW050=



000
FTUS41 KBGM 042320
TAFBGM
TAF
KBGM 042320Z 0500/0524 22004KT P6SM FEW018
      TEMPO 0506/0508 2SM BR
     FM050800 27003KT 2SM BR SCT003
     FM051230 30007KT P6SM FEW040=



000
FTUS41 KBGM 042320
TAFELM
TAF
KELM 042320Z 0500/0524 VRB03KT P6SM FEW045
      TEMPO 0503/0506 1 1/2SM BR FEW002
     FM050600 00000KT 1/2SM FG OVC002
     FM051300 VRB03KT P6SM FEW050=



000
FTUS41 KBGM 042320
TAFAVP
TAF
KAVP 042320Z 0500/0524 VRB03KT P6SM FEW018 BKN025
     FM050400 VRB03KT 3SM BR FEW007 SCT025
      TEMPO 0505/0508 2SM BR OVC009
     FM050800 VRB02KT 1 1/2SM BR OVC007
     FM051230 28005KT P6SM FEW050=



000
FTUS41 KBGM 042320
TAFSYR
TAF
KSYR 042320Z 0500/0524 23003KT P6SM FEW050
     FM051400 29008KT P6SM FEW050=



000
FTUS41 KBGM 042320
TAFBGM
TAF
KBGM 042320Z 0500/0524 22004KT P6SM FEW018
      TEMPO 0506/0508 2SM BR
     FM050800 27003KT 2SM BR SCT003
     FM051230 30007KT P6SM FEW040=



000
FTUS41 KBGM 042320
TAFELM
TAF
KELM 042320Z 0500/0524 VRB03KT P6SM FEW045
      TEMPO 0503/0506 1 1/2SM BR FEW002
     FM050600 00000KT 1/2SM FG OVC002
     FM051300 VRB03KT P6SM FEW050=



000
FTUS41 KBGM 042320
TAFITH
TAF
KITH 042320Z 0500/0524 VRB03KT P6SM FEW035
      TEMPO 0508/0512 3SM BR SCT005
     FM051500 30007KT P6SM FEW035=



000
FTUS41 KBGM 042320
TAFSYR
TAF
KSYR 042320Z 0500/0524 23003KT P6SM FEW050
     FM051400 29008KT P6SM FEW050=



000
FTUS41 KBGM 042320
TAFITH
TAF
KITH 042320Z 0500/0524 VRB03KT P6SM FEW035
      TEMPO 0508/0512 3SM BR SCT005
     FM051500 30007KT P6SM FEW035=



000
FTUS41 KBGM 042320
TAFAVP
TAF
KAVP 042320Z 0500/0524 VRB03KT P6SM FEW018 BKN025
     FM050400 VRB03KT 3SM BR FEW007 SCT025
      TEMPO 0505/0508 2SM BR OVC009
     FM050800 VRB02KT 1 1/2SM BR OVC007
     FM051230 28005KT P6SM FEW050=



000
FTUS41 KBGM 042020 AAB
TAFITH
TAF AMD
KITH 042020Z 0420/0518 18008KT P6SM SCT035
     FM042300 VRB03KT P6SM FEW035
     FM050800 00000KT 3SM BR SCT005
     FM051300 VRB03KT P6SM SKC=



000
FTUS41 KBGM 042018 AAB
TAFBGM
TAF AMD
KBGM 042018Z 0420/0518 19007KT P6SM OVC025
     FM042100 20006KT P6SM SCT035
     FM050800 VRB03KT 2SM BR SCT005
     FM051300 VRB03KT P6SM SKC=



000
FTUS41 KBGM 041912 AAA
TAFAVP
TAF AMD
KAVP 041912Z 0419/0518 04005KT P6SM BKN040
      TEMPO 0419/0423 -SHRA OVC025
     FM050000 VRB03KT P6SM FEW045
     FM050800 VRB03KT 3SM BR SCT015
     FM051300 VRB03KT P6SM SKC=



000
FTUS41 KBGM 041828 AAA
TAFELM
TAF AMD
KELM 041828Z 0418/0518 20005KT P6SM BKN040
      TEMPO 0419/0422 BKN025
     FM050000 VRB03KT P6SM FEW045
     FM050500 00000KT 1/2SM FG OVC002
      TEMPO 0505/0507 3SM BR SCT002
     FM051400 VRB03KT P6SM SKC=



000
FTUS41 KBGM 041827 AAA
TAFITH
TAF AMD
KITH 041827Z 0418/0518 18008KT P6SM BKN040
      TEMPO 0419/0423 BKN025
     FM050000 VRB03KT P6SM FEW045
     FM050800 00000KT 3SM BR SCT005
     FM051300 VRB03KT P6SM SKC=



000
FTUS41 KBGM 041826 AAA
TAFBGM
TAF AMD
KBGM 041826Z 0418/0518 19007KT P6SM OVC035
      TEMPO 0418/0421 OVC018
     FM042100 18008KT P6SM BKN035
     FM050000 VRB03KT P6SM FEW040
     FM050800 VRB03KT 2SM BR SCT005
     FM051300 VRB03KT P6SM SKC=



000
FTUS41 KBGM 041731
TAFELM
TAF
KELM 041731Z 0418/0518 18006KT P6SM OVC025
     FM041900 20005KT P6SM BKN040
      TEMPO 0421/0423 4SM -TSRA BR OVC025CB
     FM050000 VRB03KT P6SM FEW045
     FM050500 00000KT 1/2SM FG OVC002
      TEMPO 0505/0507 3SM BR SCT002
     FM051400 VRB03KT P6SM SKC=



000
FTUS41 KBGM 041731
TAFSYR
TAF
KSYR 041731Z 0418/0518 19008KT P6SM BKN035
     FM050100 VRB03KT P6SM FEW045=



000
FTUS41 KBGM 041731
TAFBGM
TAF
KBGM 041731Z 0418/0518 17007KT P6SM OVC015
      TEMPO 0418/0419 OVC007
     FM041900 18008KT P6SM BKN025
     FM050000 VRB03KT P6SM FEW040
     FM050800 VRB03KT 2SM BR SCT005
     FM051300 VRB03KT P6SM SKC=



000
FTUS41 KBGM 041731
TAFITH
TAF
KITH 041731Z 0418/0518 15007KT P6SM SCT022 OVC035
      TEMPO 0418/0419 OVC022
     FM041900 18008KT P6SM BKN040
      TEMPO 0421/0423 4SM -TSRA BR OVC025CB
     FM050000 VRB03KT P6SM FEW045
     FM050800 00000KT 3SM BR SCT005
     FM051300 VRB03KT P6SM SKC=



000
FTUS41 KBGM 041731
TAFAVP
TAF
KAVP 041731Z 0418/0518 21005KT P6SM BKN040
     FM050000 VRB03KT P6SM FEW045
     FM050800 VRB03KT 3SM BR SCT015
     FM051300 VRB03KT P6SM SKC=



000
FTUS41 KBGM 041731
TAFBGM
TAF
KBGM 041731Z 0418/0518 17007KT P6SM OVC015
      TEMPO 0418/0419 OVC007
     FM041900 18008KT P6SM BKN025
     FM050000 VRB03KT P6SM FEW040
     FM050800 VRB03KT 2SM BR SCT005
     FM051300 VRB03KT P6SM SKC=



000
FTUS41 KBGM 041731
TAFELM
TAF
KELM 041731Z 0418/0518 18006KT P6SM OVC025
     FM041900 20005KT P6SM BKN040
      TEMPO 0421/0423 4SM -TSRA BR OVC025CB
     FM050000 VRB03KT P6SM FEW045
     FM050500 00000KT 1/2SM FG OVC002
      TEMPO 0505/0507 3SM BR SCT002
     FM051400 VRB03KT P6SM SKC=



000
FTUS41 KBGM 041731
TAFITH
TAF
KITH 041731Z 0418/0518 15007KT P6SM SCT022 OVC035
      TEMPO 0418/0419 OVC022
     FM041900 18008KT P6SM BKN040
      TEMPO 0421/0423 4SM -TSRA BR OVC025CB
     FM050000 VRB03KT P6SM FEW045
     FM050800 00000KT 3SM BR SCT005
     FM051300 VRB03KT P6SM SKC=



000
FTUS41 KBGM 041731
TAFSYR
TAF
KSYR 041731Z 0418/0518 19008KT P6SM BKN035
     FM050100 VRB03KT P6SM FEW045=



000
FTUS41 KBGM 041731
TAFAVP
TAF
KAVP 041731Z 0418/0518 21005KT P6SM BKN040
     FM050000 VRB03KT P6SM FEW045
     FM050800 VRB03KT 3SM BR SCT015
     FM051300 VRB03KT P6SM SKC=



000
FTUS41 KBGM 041704 AAA
TAFITH
TAF AMD
KITH 041704Z 0417/0512 15007KT P6SM SCT022 OVC035
      TEMPO 0417/0419 OVC022
     FM041900 18008KT P6SM BKN040
      TEMPO 0421/0423 4SM -TSRA BR OVC025CB
     FM050000 VRB03KT P6SM FEW045
     FM050800 00000KT 3SM BR SCT005=



000
FTUS41 KBGM 041704 AAA
TAFITH
TAF AMD
KITH 041704Z 0417/0512 15007KT P6SM SCT022 OVC035
      TEMPO 0417/0419 OVC022
     FM041900 18008KT P6SM BKN040
      TEMPO 0421/0423 4SM -TSRA BR OVC025CB
     FM050000 VRB03KT P6SM FEW045
     FM050800 00000KT 3SM BR SCT005=



000
FTUS41 KBGM 041702 AAD
TAFBGM
TAF AMD
KBGM 041702Z 0417/0512 17007KT P6SM OVC015
      TEMPO 0417/0419 OVC007
     FM041900 18008KT P6SM BKN025
     FM050000 VRB03KT P6SM FEW040
     FM050800 VRB03KT 2SM BR SCT005=



000
FTUS41 KBGM 041702 AAD
TAFBGM
TAF AMD
KBGM 041702Z 0417/0512 17007KT P6SM OVC015
      TEMPO 0417/0419 OVC007
     FM041900 18008KT P6SM BKN025
     FM050000 VRB03KT P6SM FEW040
     FM050800 VRB03KT 2SM BR SCT005=



000
FTUS41 KBGM 041612 AAC
TAFELM
TAF AMD
KELM 041612Z 0416/0512 18006KT P6SM OVC025
     FM041900 20005KT P6SM BKN040
      TEMPO 0421/0423 4SM -TSRA BR OVC025CB
     FM050000 VRB03KT P6SM FEW045
     FM050500 00000KT 1/2SM FG OVC002
      TEMPO 0505/0507 3SM BR SCT002=



000
FTUS41 KBGM 041333 AAB
TAFELM
TAF AMD
KELM 041333Z 0414/0512 VRB03KT P6SM SCT015 OVC040
      TEMPO 0414/0415 5SM -SHRA BR OVC015
     FM041600 20005KT P6SM BKN040
      TEMPO 0421/0423 4SM -TSRA BR OVC025CB
     FM050000 VRB03KT P6SM FEW045
     FM050500 00000KT 1/2SM FG OVC002
      TEMPO 0505/0507 3SM BR SCT002=



000
FTUS41 KBGM 041333 AAB
TAFELM
TAF AMD
KELM 041333Z 0414/0512 VRB03KT P6SM SCT015 OVC040
      TEMPO 0414/0415 5SM -SHRA BR OVC015
     FM041600 20005KT P6SM BKN040
      TEMPO 0421/0423 4SM -TSRA BR OVC025CB
     FM050000 VRB03KT P6SM FEW045
     FM050500 00000KT 1/2SM FG OVC002
      TEMPO 0505/0507 3SM BR SCT002=



000
FTUS41 KBGM 041254 AAA
TAFELM
TAF AMD
KELM 041254Z 0413/0512 VRB03KT 5SM -SHRA BR SCT015 OVC040
      TEMPO 0413/0415 2SM SHRA BR BKN005 OVC015
     FM041600 20005KT P6SM BKN040
      TEMPO 0421/0423 4SM -TSRA BR OVC025CB
     FM050000 VRB03KT P6SM FEW045
     FM050500 00000KT 1/2SM FG OVC002
      TEMPO 0505/0507 3SM BR SCT002=



000
FTUS41 KBGM 041254 AAA
TAFELM
TAF AMD
KELM 041254Z 0413/0512 VRB03KT 5SM -SHRA BR SCT015 OVC040
      TEMPO 0413/0415 2SM SHRA BR BKN005 OVC015
     FM041600 20005KT P6SM BKN040
      TEMPO 0421/0423 4SM -TSRA BR OVC025CB
     FM050000 VRB03KT P6SM FEW045
     FM050500 00000KT 1/2SM FG OVC002
      TEMPO 0505/0507 3SM BR SCT002=



000
FTUS41 KBGM 041254 AAB
TAFBGM
TAF AMD
KBGM 041254Z 0413/0512 VRB03KT 4SM -SHRA BR SCT008 OVC015
      TEMPO 0413/0416 2SM SHRA BR OVC004
     FM041700 18008KT P6SM BKN035
     FM050000 VRB03KT P6SM FEW040
     FM050800 VRB03KT 2SM BR SCT005=



000
FTUS41 KBGM 041254 AAB
TAFBGM
TAF AMD
KBGM 041254Z 0413/0512 VRB03KT 4SM -SHRA BR SCT008 OVC015
      TEMPO 0413/0416 2SM SHRA BR OVC004
     FM041700 18008KT P6SM BKN035
     FM050000 VRB03KT P6SM FEW040
     FM050800 VRB03KT 2SM BR SCT005=



000
FTUS41 KBGM 041131
TAFELM
TAF
KELM 041131Z 0412/0512 VRB03KT 5SM -SHRA BR SCT015 OVC040
      TEMPO 0412/0414 2SM SHRA BR OVC015
     FM041600 20005KT P6SM BKN040 PROB30 0421/0423 4SM -TSRA BR
      OVC025CB
     FM050000 VRB03KT P6SM FEW045
     FM050500 00000KT 1/2SM FG OVC002
      TEMPO 0505/0507 3SM BR SCT002=



000
FTUS41 KBGM 041131
TAFSYR
TAF
KSYR 041131Z 0412/0512 VRB03KT P6SM -SHRA SCT025 OVC060
     FM041700 19008KT P6SM BKN040 PROB30 0421/0423 4SM -TSRA BR
      OVC025CB
     FM050100 VRB03KT P6SM FEW045=



000
FTUS41 KBGM 041131
TAFITH
TAF
KITH 041131Z 0412/0512 VRB03KT P6SM -SHRA SCT015 OVC035
      TEMPO 0412/0416 3SM -SHRA BR OVC015
     FM041700 18008KT P6SM BKN040 PROB30 0421/0423 4SM -TSRA BR
      OVC025CB
     FM050000 VRB03KT P6SM FEW045
     FM050800 00000KT 3SM BR SCT005=



000
FTUS41 KBGM 041131
TAFBGM
TAF
KBGM 041131Z 0412/0512 VRB03KT 4SM -SHRA BR SCT008 OVC015
      TEMPO 0412/0416 2SM SHRA BR OVC008
     FM041700 18008KT P6SM BKN035
     FM050000 VRB03KT P6SM FEW040
     FM050800 VRB03KT 2SM BR SCT005=



000
FTUS41 KBGM 041131
TAFAVP
TAF
KAVP 041131Z 0412/0512 VRB03KT 5SM -SHRA BR SCT025 OVC040
      TEMPO 0412/0416 1SM SHRA BR OVC025
     FM041700 21005KT P6SM BKN040
     FM050000 VRB03KT P6SM FEW045
     FM050800 VRB03KT 3SM BR SCT012=



000
FTUS41 KBGM 041131
TAFELM
TAF
KELM 041131Z 0412/0512 VRB03KT 5SM -SHRA BR SCT015 OVC040
      TEMPO 0412/0414 2SM SHRA BR OVC015
     FM041600 20005KT P6SM BKN040 PROB30 0421/0423 4SM -TSRA BR
      OVC025CB
     FM050000 VRB03KT P6SM FEW045
     FM050500 00000KT 1/2SM FG OVC002
      TEMPO 0505/0507 3SM BR SCT002=



000
FTUS41 KBGM 041131
TAFITH
TAF
KITH 041131Z 0412/0512 VRB03KT P6SM -SHRA SCT015 OVC035
      TEMPO 0412/0416 3SM -SHRA BR OVC015
     FM041700 18008KT P6SM BKN040 PROB30 0421/0423 4SM -TSRA BR
      OVC025CB
     FM050000 VRB03KT P6SM FEW045
     FM050800 00000KT 3SM BR SCT005=



000
FTUS41 KBGM 041131
TAFSYR
TAF
KSYR 041131Z 0412/0512 VRB03KT P6SM -SHRA SCT025 OVC060
     FM041700 19008KT P6SM BKN040 PROB30 0421/0423 4SM -TSRA BR
      OVC025CB
     FM050100 VRB03KT P6SM FEW045=



000
FTUS41 KBGM 041131
TAFBGM
TAF
KBGM 041131Z 0412/0512 VRB03KT 4SM -SHRA BR SCT008 OVC015
      TEMPO 0412/0416 2SM SHRA BR OVC008
     FM041700 18008KT P6SM BKN035
     FM050000 VRB03KT P6SM FEW040
     FM050800 VRB03KT 2SM BR SCT005=



000
FTUS41 KBGM 041131
TAFAVP
TAF
KAVP 041131Z 0412/0512 VRB03KT 5SM -SHRA BR SCT025 OVC040
      TEMPO 0412/0416 1SM SHRA BR OVC025
     FM041700 21005KT P6SM BKN040
     FM050000 VRB03KT P6SM FEW045
     FM050800 VRB03KT 3SM BR SCT012=



000
FTUS41 KBGM 040836 AAA
TAFELM
TAF AMD
KELM 040836Z 0409/0506 VRB03KT P6SM -SHRA SCT015 OVC025
      TEMPO 0409/0413 3SM -SHRA BR OVC015
     FM041600 20005KT P6SM BKN040
     FM050000 VRB03KT P6SM FEW045=



000
FTUS41 KBGM 040836 AAA
TAFAVP
TAF AMD
KAVP 040836Z 0409/0506 VRB03KT P6SM -SHRA SCT025 OVC035
      TEMPO 0409/0411 4SM -SHRA BR OVC025
     FM041100 VRB03KT P6SM -SHRA SCT012 OVC025
      TEMPO 0411/0415 3SM -SHRA BR OVC012
     FM041700 21005KT P6SM BKN040
     FM050000 VRB03KT P6SM FEW045=



000
FTUS41 KBGM 040836 AAA
TAFSYR
TAF AMD
KSYR 040836Z 0409/0506 VRB03KT P6SM OVC080
     FM041100 VRB03KT P6SM -SHRA SCT025 OVC035
      TEMPO 0411/0415 4SM -SHRA BR OVC025
     FM041700 19008KT P6SM BKN040
     FM050100 VRB03KT P6SM FEW045=



000
FTUS41 KBGM 040836 AAA
TAFITH
TAF AMD
KITH 040836Z 0409/0506 VRB03KT P6SM OVC070
     FM041000 VRB03KT P6SM -SHRA SCT025 OVC035
      TEMPO 0410/0412 4SM -SHRA BR OVC025
     FM041200 VRB03KT P6SM -SHRA SCT008 OVC015
      TEMPO 0412/0415 3SM -SHRA BR OVC008
     FM041700 18008KT P6SM BKN035
     FM050000 VRB03KT P6SM FEW040=



000
FTUS41 KBGM 040836 AAA
TAFBGM
TAF AMD
KBGM 040836Z 0409/0506 VRB03KT P6SM -SHRA SCT025 OVC035
      TEMPO 0409/0411 4SM -SHRA BR OVC025
     FM041100 VRB03KT P6SM -SHRA SCT008 OVC015
      TEMPO 0411/0415 3SM -SHRA BR OVC008
     FM041700 18008KT P6SM BKN035
     FM050000 VRB03KT P6SM FEW040=



000
FTUS41 KBGM 040553
TAFELM
TAF
KELM 040553Z 0406/0506 VRB03KT P6SM OVC050
     FM040700 VRB03KT P6SM -SHRA SCT025 OVC035
      TEMPO 0407/0409 4SM -SHRA BR OVC025
     FM040900 VRB03KT P6SM -SHRA SCT015 OVC025
      TEMPO 0409/0413 3SM -SHRA BR OVC015
     FM041500 20005KT P6SM BKN040
     FM050000 VRB03KT P6SM FEW045=



000
FTUS41 KBGM 040553
TAFBGM
TAF
KBGM 040553Z 0406/0506 VRB03KT P6SM OVC050
     FM040800 VRB03KT P6SM -SHRA SCT025 OVC035
      TEMPO 0408/0410 4SM -SHRA BR OVC025
     FM041000 VRB03KT P6SM -SHRA SCT008 OVC015
      TEMPO 0410/0414 3SM -SHRA BR OVC008
     FM041600 18008KT P6SM BKN035
     FM050000 VRB03KT P6SM FEW040=



000
FTUS41 KBGM 040553
TAFAVP
TAF
KAVP 040553Z 0406/0506 VRB03KT P6SM OVC050
     FM040800 VRB03KT P6SM -SHRA SCT025 OVC035
      TEMPO 0408/0410 4SM -SHRA BR OVC025
     FM041000 VRB03KT P6SM -SHRA SCT012 OVC025
      TEMPO 0410/0414 3SM -SHRA BR OVC012
     FM041600 21005KT P6SM BKN040
     FM050000 VRB03KT P6SM FEW045=



000
FTUS41 KBGM 040553
TAFITH
TAF
KITH 040553Z 0406/0506 VRB03KT P6SM OVC050
     FM040800 VRB03KT P6SM -SHRA SCT025 OVC035
      TEMPO 0408/0410 4SM -SHRA BR OVC025
     FM041000 VRB03KT P6SM -SHRA SCT008 OVC015
      TEMPO 0410/0413 3SM -SHRA BR OVC008
     FM041500 18008KT P6SM BKN035
     FM050000 VRB03KT P6SM FEW040=



000
FTUS41 KBGM 040553
TAFSYR
TAF
KSYR 040553Z 0406/0506 VRB03KT P6SM OVC060
      TEMPO 0406/0407 SCT060 OVC150
     FM040900 VRB03KT P6SM -SHRA SCT025 OVC035
      TEMPO 0409/0413 4SM -SHRA BR OVC025
     FM041500 19008KT P6SM BKN040
     FM050100 VRB03KT P6SM FEW045=



000
FTUS41 KBGM 040217 AAA
TAFAVP
TAF AMD
KAVP 040217Z 0402/0424 VRB05KT P6SM SCT040 BKN100
     FM040400 13008KT P6SM SCT025 BKN035 OVC100
      TEMPO 0405/0409 6SM -SHRA BKN025
     FM041000 16005KT 5SM -RA BR OVC040
     FM041300 15004KT P6SM BKN050 OVC120=



000
FTUS41 KBGM 040217 AAA
TAFAVP
TAF AMD
KAVP 040217Z 0402/0424 VRB05KT P6SM SCT040 BKN100
     FM040400 13008KT P6SM SCT025 BKN035 OVC100
      TEMPO 0405/0409 6SM -SHRA BKN025
     FM041000 16005KT 5SM -RA BR OVC040
     FM041300 15004KT P6SM BKN050 OVC120=



000
FTUS41 KBGM 032322
TAFSYR
TAF
KSYR 032322Z 0400/0424 VRB02KT P6SM FEW250
     FM040800 VRB03KT P6SM BKN035 OVC100
      TEMPO 0408/0412 6SM -SHRA
     FM041600 20007KT P6SM BKN035 OVC120
      TEMPO 0416/0420 6SM -SHRA
     FM042200 25006KT 6SM -SHRA BKN030=



000
FTUS41 KBGM 032322
TAFITH
TAF
KITH 032322Z 0400/0424 VRB02KT P6SM SCT250
     FM040800 15008KT P6SM BKN050
      TEMPO 0408/0411 6SM -RA BKN030
     FM041200 15005KT P6SM SCT050 OVC120
     FM041600 22006KT P6SM SCT025 BKN035
      TEMPO 0416/0420 5SM -SHRA OVC025
     FM042200 25006KT P6SM BKN030=



000
FTUS41 KBGM 032322
TAFAVP
TAF
KAVP 032322Z 0400/0424 VRB05KT P6SM BKN035 OVC250
     FM040400 13008KT P6SM SCT025 BKN035 OVC100
      TEMPO 0405/0409 6SM -SHRA BKN025
     FM041000 16005KT 5SM -RA BR OVC040
     FM041300 15004KT P6SM BKN050 OVC120=



000
FTUS41 KBGM 032322
TAFELM
TAF
KELM 032322Z 0400/0424 VRB05KT P6SM SCT250
     FM040300 09006KT P6SM OVC035
      TEMPO 0406/0410 -SHRA
     FM041200 20006KT P6SM BKN025 OVC120
     FM041600 22008KT P6SM BKN035
      TEMPO 0416/0420 6SM -SHRA=



000
FTUS41 KBGM 032322
TAFBGM
TAF
KBGM 032322Z 0400/0424 VRB05KT P6SM SCT250
     FM040400 16005KT P6SM OVC050
      TEMPO 0407/0411 -SHRA OVC025
     FM041400 17008KT 5SM -SHRA BKN025 OVC100
     FM041900 17006KT P6SM SCT025 BKN100=



000
FTUS41 KBGM 031735
TAFELM
TAF
KELM 031735Z 0318/0418 VRB02KT P6SM SKC
     FM040500 VRB03KT P6SM OVC060
      TEMPO 0408/0412 -RA OVC025
     FM041200 19005KT 5SM -RA BR OVC025=



000
FTUS41 KBGM 031735
TAFSYR
TAF
KSYR 031735Z 0318/0418 VRB02KT P6SM SKC
     FM040800 VRB03KT P6SM BKN100
     FM041500 17007KT P6SM -RA OVC050=



000
FTUS41 KBGM 031735
TAFITH
TAF
KITH 031735Z 0318/0418 VRB02KT P6SM SKC
     FM040600 VRB03KT P6SM OVC080
     FM041200 15005KT P6SM -RA OVC040
      TEMPO 0415/0418 5SM -RA OVC025=



000
FTUS41 KBGM 031735
TAFAVP
TAF
KAVP 031735Z 0318/0418 21005KT P6SM SCT100
     FM040400 13005KT P6SM OVC080
      TEMPO 0408/0412 -SHRA OVC040
     FM041200 05005KT 5SM -SHRA BR OVC025=



000
FTUS41 KBGM 031735
TAFBGM
TAF
KBGM 031735Z 0318/0418 34005KT P6SM SKC
     FM040500 16005KT P6SM OVC050
      TEMPO 0408/0412 -SHRA OVC025
     FM041200 17008KT 5SM -RA BR OVC017=



000
FTUS41 KBGM 031735
TAFSYR
TAF
KSYR 031735Z 0318/0418 VRB02KT P6SM SKC
     FM040800 VRB03KT P6SM BKN100
     FM041500 17007KT P6SM -RA OVC050=



000
FTUS41 KBGM 031735
TAFITH
TAF
KITH 031735Z 0318/0418 VRB02KT P6SM SKC
     FM040600 VRB03KT P6SM OVC080
     FM041200 15005KT P6SM -RA OVC040
      TEMPO 0415/0418 5SM -RA OVC025=



000
FTUS41 KBGM 031735
TAFAVP
TAF
KAVP 031735Z 0318/0418 21005KT P6SM SCT100
     FM040400 13005KT P6SM OVC080
      TEMPO 0408/0412 -SHRA OVC040
     FM041200 05005KT 5SM -SHRA BR OVC025=



000
FTUS41 KBGM 031735
TAFELM
TAF
KELM 031735Z 0318/0418 VRB02KT P6SM SKC
     FM040500 VRB03KT P6SM OVC060
      TEMPO 0408/0412 -RA OVC025
     FM041200 19005KT 5SM -RA BR OVC025=



000
FTUS41 KBGM 031735
TAFBGM
TAF
KBGM 031735Z 0318/0418 34005KT P6SM SKC
     FM040500 16005KT P6SM OVC050
      TEMPO 0408/0412 -SHRA OVC025
     FM041200 17008KT 5SM -RA BR OVC017=



000
FTUS41 KBGM 031136
TAFSYR
TAF
KSYR 031136Z 0312/0412 VRB02KT P6SM SKC
     FM040800 VRB03KT P6SM BKN100=



000
FTUS41 KBGM 031136
TAFITH
TAF
KITH 031136Z 0312/0412 VRB02KT P6SM SKC
     FM040600 VRB03KT P6SM OVC080=



000
FTUS41 KBGM 031136
TAFBGM
TAF
KBGM 031136Z 0312/0412 34005KT P6SM SKC
     FM040500 16005KT P6SM OVC080
      TEMPO 0408/0412 -SHRA OVC050=



000
FTUS41 KBGM 031136
TAFAVP
TAF
KAVP 031136Z 0312/0412 VRB03KT P6SM BKN050
     FM031500 21005KT P6SM SCT100
     FM040400 16005KT P6SM OVC080
      TEMPO 0408/0412 -SHRA OVC040=



000
FTUS41 KBGM 031136
TAFELM
TAF
KELM 031136Z 0312/0412 VRB02KT P6SM SKC
     FM040500 VRB03KT P6SM OVC080
      TEMPO 0408/0412 -SHRA OVC050=



000
FTUS41 KBGM 031136
TAFBGM
TAF
KBGM 031136Z 0312/0412 34005KT P6SM SKC
     FM040500 16005KT P6SM OVC080
      TEMPO 0408/0412 -SHRA OVC050=



000
FTUS41 KBGM 031136
TAFITH
TAF
KITH 031136Z 0312/0412 VRB02KT P6SM SKC
     FM040600 VRB03KT P6SM OVC080=



000
FTUS41 KBGM 031136
TAFELM
TAF
KELM 031136Z 0312/0412 VRB02KT P6SM SKC
     FM040500 VRB03KT P6SM OVC080
      TEMPO 0408/0412 -SHRA OVC050=



000
FTUS41 KBGM 031136
TAFSYR
TAF
KSYR 031136Z 0312/0412 VRB02KT P6SM SKC
     FM040800 VRB03KT P6SM BKN100=



000
FTUS41 KBGM 031136
TAFAVP
TAF
KAVP 031136Z 0312/0412 VRB03KT P6SM BKN050
     FM031500 21005KT P6SM SCT100
     FM040400 16005KT P6SM OVC080
      TEMPO 0408/0412 -SHRA OVC040=



000
FTUS41 KBGM 030859 AAA
TAFITH
TAF AMD
KITH 030859Z 0309/0406 VRB02KT P6SM SKC
      TEMPO 0309/0312 5SM BR=



000
FTUS41 KBGM 030859 AAA
TAFBGM
TAF AMD
KBGM 030859Z 0309/0406 34005KT P6SM SKC
     FM040400 21006KT P6SM BKN150=



000
FTUS41 KBGM 030859 AAA
TAFAVP
TAF AMD
KAVP 030859Z 0309/0406 VRB03KT P6SM SCT080
     FM031400 21005KT P6SM SCT100
     FM040300 16005KT P6SM BKN100=



000
FTUS41 KBGM 030859 AAA
TAFSYR
TAF AMD
KSYR 030859Z 0309/0406 VRB02KT P6SM SKC=



000
FTUS41 KBGM 030859 AAA
TAFELM
TAF AMD
KELM 030859Z 0309/0406 VRB02KT P6SM BKN050
      TEMPO 0310/0312 2SM BR
     FM031400 VRB03KT P6SM SKC
     FM040300 VRB03KT P6SM BKN150=



000
FTUS41 KBGM 030533
TAFAVP
TAF
KAVP 030533Z 0306/0406 VRB03KT P6SM BKN080
     FM031400 21005KT P6SM SCT100
     FM040300 16005KT P6SM BKN100=



000
FTUS41 KBGM 030533
TAFELM
TAF
KELM 030533Z 0306/0406 VRB02KT P6SM SKC
     FM030800 00000KT 3SM BR SKC
      TEMPO 0309/0312 1/2SM FG VV002
     FM031400 VRB03KT P6SM SKC
     FM040300 VRB03KT P6SM BKN150=



000
FTUS41 KBGM 030533
TAFSYR
TAF
KSYR 030533Z 0306/0406 VRB02KT P6SM SKC=



000
FTUS41 KBGM 030533
TAFBGM
TAF
KBGM 030533Z 0306/0406 34005KT P6SM SKC
     FM040400 21006KT P6SM BKN150=



000
FTUS41 KBGM 030533
TAFITH
TAF
KITH 030533Z 0306/0406 VRB02KT P6SM SKC
      TEMPO 0308/0312 5SM BR=



    US Dept of Commerce
    National Oceanic and Atmospheric Administration
    National Weather Service
    1325 East West Highway
    Silver Spring, MD 20910
    Page Author: NWS Internet Services Team
Disclaimer
Information Quality
Credits
Glossary
Privacy Policy
Freedom of Information Act (FOIA)
About Us
Career Opportunities